createdAt,value
2018-03-14T00:01:16.007Z,88.40
2018-03-14T00:03:44.249Z,88.60
2018-03-14T00:06:12.466Z,88.60
2018-03-14T00:08:40.700Z,88.80
2018-03-14T00:11:09.688Z,89.30
2018-03-14T00:13:38.697Z,89.20
2018-03-14T00:16:07.803Z,89.30
2018-03-14T00:18:36.041Z,89.30
2018-03-14T00:21:04.260Z,88.90
2018-03-14T00:23:32.504Z,89.40
2018-03-14T00:26:01.496Z,89.20
2018-03-14T00:28:30.492Z,89.60
2018-03-14T00:30:59.484Z,89.70
2018-03-14T00:33:28.486Z,89.20
2018-03-14T00:35:56.707Z,89.20
2018-03-14T00:38:24.940Z,89.50
2018-03-14T00:40:53.159Z,88.90
2018-03-14T00:43:21.384Z,89.00
2018-03-14T00:45:49.599Z,89.40
2018-03-14T00:48:17.836Z,88.80
2018-03-14T00:50:46.062Z,88.80
2018-03-14T00:53:14.292Z,88.50
2018-03-14T00:55:42.512Z,88.30
2018-03-14T00:58:10.760Z,88.10
2018-03-14T01:00:38.990Z,88.10
2018-03-14T01:03:08.264Z,88.30
2018-03-14T01:05:36.532Z,88.30
2018-03-14T01:08:04.750Z,88.30
2018-03-14T01:10:32.985Z,88.40
2018-03-14T01:13:01.210Z,88.40
2018-03-14T01:15:29.449Z,88.00
2018-03-14T01:17:58.437Z,87.70
2018-03-14T01:20:27.437Z,88.10
2018-03-14T01:22:56.423Z,87.60
2018-03-14T01:25:25.423Z,87.60
2018-03-14T01:27:53.640Z,87.60
2018-03-14T01:30:22.258Z,87.80
2018-03-14T01:32:50.463Z,87.60
2018-03-14T01:35:18.701Z,87.70
2018-03-14T01:37:46.921Z,88.40
2018-03-14T01:40:15.160Z,87.90
2018-03-14T01:42:44.146Z,88.20
2018-03-14T01:45:13.148Z,88.40
2018-03-14T01:47:42.133Z,88.30
2018-03-14T01:50:11.140Z,88.40
2018-03-14T01:52:39.357Z,88.40
2018-03-14T01:55:07.595Z,88.30
2018-03-14T01:57:35.811Z,88.30
2018-03-14T02:00:04.810Z,88.40
2018-03-14T04:10:54.845Z,89.00
2018-03-14T04:13:23.084Z,89.00
2018-03-14T04:15:51.312Z,89.20
2018-03-14T04:18:19.548Z,89.30
2018-03-14T04:20:47.772Z,89.30
2018-03-14T04:23:16.788Z,89.50
2018-03-14T04:25:45.009Z,89.50
2018-03-14T04:28:13.264Z,89.80
2018-03-14T04:30:41.488Z,89.80
2018-03-14T04:33:10.480Z,89.50
2018-03-14T04:35:39.485Z,89.60
2018-03-14T04:38:08.468Z,89.50
2018-03-14T04:40:37.481Z,89.60
2018-03-14T04:43:05.711Z,89.60
2018-03-14T04:45:33.941Z,89.60
2018-03-14T04:48:02.161Z,89.50
2018-03-14T04:50:30.396Z,89.70
2018-03-14T04:52:58.924Z,89.80
2018-03-14T04:55:27.153Z,89.90
2018-03-14T04:57:55.381Z,90.10
2018-03-14T05:00:24.380Z,89.40
2018-03-14T05:02:53.368Z,89.20
2018-03-14T05:05:22.376Z,89.70
2018-03-14T05:07:50.601Z,89.60
2018-03-14T05:10:18.836Z,89.30
2018-03-14T05:12:47.060Z,89.40
2018-03-14T05:15:15.301Z,89.30
2018-03-14T05:17:43.532Z,89.30
2018-03-14T05:20:11.764Z,89.60
2018-03-14T05:22:39.993Z,89.50
2018-03-14T05:25:08.227Z,89.10
2018-03-14T05:27:36.440Z,89.00
2018-03-14T05:30:04.677Z,89.30
2018-03-14T05:32:32.904Z,88.60
2018-03-14T05:35:01.145Z,88.80
2018-03-14T05:37:30.132Z,88.80
2018-03-14T05:39:59.141Z,88.70
2018-03-14T05:42:27.371Z,88.70
2018-03-14T05:44:55.592Z,88.50
2018-03-14T05:47:23.836Z,88.60
2018-03-14T05:49:52.825Z,88.50
2018-03-14T05:52:21.829Z,88.90
2018-03-14T05:54:50.828Z,88.60
2018-03-14T05:57:19.830Z,88.60
2018-03-14T05:59:48.059Z,88.60
2018-03-14T06:02:16.294Z,89.00
2018-03-14T06:04:44.516Z,88.50
2018-03-14T06:07:12.755Z,88.60
2018-03-14T06:09:40.981Z,88.80
2018-03-14T06:12:09.988Z,88.80
2018-03-14T06:14:38.220Z,88.70
2018-03-14T06:17:06.448Z,89.00
2018-03-14T06:19:34.668Z,88.90
2018-03-14T06:22:02.905Z,88.90
2018-03-14T06:24:31.404Z,89.40
2018-03-14T06:26:59.633Z,88.90
2018-03-14T06:29:27.877Z,88.50
2018-03-14T06:31:56.120Z,88.90
2018-03-14T06:34:24.345Z,89.00
2018-03-14T06:36:52.588Z,88.30
2018-03-14T06:39:20.809Z,88.90
2018-03-14T06:41:49.046Z,88.40
2018-03-14T06:44:17.270Z,88.20
2018-03-14T06:46:45.517Z,88.10
2018-03-14T06:49:13.800Z,87.50
2018-03-14T06:51:42.045Z,87.70
2018-03-14T06:54:11.040Z,87.60
2018-03-14T06:56:40.025Z,88.10
2018-03-14T06:59:20.884Z,87.60
2018-03-14T07:02:01.168Z,87.50
2018-03-14T07:04:39.313Z,88.00
2018-03-14T07:07:07.569Z,87.20
2018-03-14T07:09:35.796Z,87.00
2018-03-14T07:12:04.017Z,87.30
2018-03-14T07:14:32.260Z,88.10
2018-03-14T07:17:01.248Z,87.70
2018-03-14T07:19:30.257Z,86.90
2018-03-14T07:21:58.477Z,86.90
2018-03-14T07:24:26.710Z,87.20
2018-03-14T07:26:54.940Z,87.70
2018-03-14T07:29:23.175Z,87.00
2018-03-14T07:31:51.389Z,86.70
2018-03-14T07:34:19.637Z,86.70
2018-03-14T07:36:47.868Z,87.10
2018-03-14T07:39:16.876Z,87.20
2018-03-14T07:41:45.106Z,87.10
2018-03-14T07:44:13.348Z,86.00
2018-03-14T07:46:41.572Z,87.40
2018-03-14T07:49:11.450Z,85.40
2018-03-14T07:51:39.676Z,85.40
2018-03-14T07:54:07.950Z,85.60
2018-03-14T07:56:36.184Z,86.50
2018-03-14T07:59:04.424Z,85.70
2018-03-14T08:01:32.645Z,85.00
2018-03-14T08:04:01.649Z,84.70
2018-03-14T08:06:30.657Z,85.20
2018-03-14T08:08:59.292Z,85.20
2018-03-14T08:11:27.507Z,84.70
2018-03-14T08:13:55.796Z,85.00
2018-03-14T08:16:23.976Z,85.80
2018-03-14T08:18:52.189Z,84.30
2018-03-14T08:21:20.435Z,85.30
2018-03-14T08:23:48.640Z,85.90
2018-03-14T08:26:16.881Z,85.90
2018-03-14T08:28:45.109Z,85.00
2018-03-14T08:31:14.115Z,83.20
2018-03-14T08:33:42.333Z,83.10
2018-03-14T08:36:10.572Z,83.30
2018-03-14T08:38:38.797Z,84.30
2018-03-14T08:41:07.033Z,84.50
2018-03-14T08:43:35.275Z,85.60
2018-03-14T08:46:04.281Z,83.50
2018-03-14T08:48:32.500Z,83.50
2018-03-14T08:51:00.732Z,83.90
2018-03-14T08:53:28.957Z,83.50
2018-03-14T08:55:57.200Z,84.00
2018-03-14T08:58:25.424Z,84.20
2018-03-14T09:00:53.988Z,84.00
2018-03-14T09:03:22.209Z,82.10
2018-03-14T09:05:50.448Z,83.30
2018-03-14T09:08:19.444Z,82.00
2018-03-14T09:10:48.449Z,82.30
2018-03-14T09:13:16.679Z,82.30
2018-03-14T09:15:44.973Z,81.10
2018-03-14T09:18:13.961Z,81.80
2018-03-14T09:20:42.940Z,81.40
2018-03-14T09:23:11.176Z,80.50
2018-03-14T09:25:39.392Z,79.60
2018-03-14T09:28:07.633Z,79.70
2018-03-14T09:30:35.860Z,80.50
2018-03-14T09:33:04.905Z,76.90
2018-03-14T09:35:33.309Z,77.00
2018-03-14T09:38:01.545Z,77.20
2018-03-14T09:40:29.773Z,77.50
2018-03-14T09:42:58.773Z,79.10
2018-03-14T09:45:27.765Z,79.30
2018-03-14T09:47:56.001Z,79.30
2018-03-14T09:50:24.228Z,78.30
2018-03-14T09:52:52.469Z,76.20
2018-03-14T09:55:21.461Z,77.30
2018-03-14T09:57:50.477Z,77.70
2018-03-14T10:00:18.697Z,77.60
2018-03-14T10:02:46.936Z,76.80
2018-03-14T10:05:15.161Z,76.40
2018-03-14T10:07:43.393Z,75.80
2018-03-14T10:10:11.638Z,75.10
2018-03-14T10:12:40.621Z,70.20
2018-03-14T10:15:09.612Z,69.70
2018-03-14T10:17:38.621Z,70.90
2018-03-14T10:20:06.846Z,70.90
2018-03-14T10:22:35.340Z,67.00
2018-03-14T10:25:05.148Z,66.30
2018-03-14T10:27:33.384Z,66.20
2018-03-14T10:30:01.610Z,65.90
2018-03-14T10:32:30.600Z,65.30
2018-03-14T10:34:59.883Z,66.60
2018-03-14T10:37:28.097Z,65.80
2018-03-14T10:39:56.341Z,67.00
2018-03-14T10:42:25.382Z,65.90
2018-03-14T10:44:53.569Z,65.90
2018-03-14T10:47:21.796Z,67.20
2018-03-14T10:49:50.797Z,65.50
2018-03-14T10:52:19.022Z,65.50
2018-03-14T10:54:47.264Z,65.10
2018-03-14T10:57:15.488Z,67.20
2018-03-14T10:59:44.496Z,63.50
2018-03-14T11:02:15.305Z,62.00
2018-03-14T11:04:43.787Z,61.90
2018-03-14T11:07:12.004Z,61.90
2018-03-14T11:09:40.236Z,62.40
2018-03-14T11:12:08.460Z,63.40
2018-03-14T11:14:36.696Z,62.00
2018-03-14T11:17:05.689Z,62.70
2018-03-14T11:19:34.701Z,64.20
2018-03-14T11:22:02.935Z,64.20
2018-03-14T11:24:31.168Z,62.20
2018-03-14T11:26:59.392Z,60.90
2018-03-14T11:29:28.402Z,63.10
2018-03-14T11:31:56.624Z,63.00
2018-03-14T11:34:24.866Z,62.70
2018-03-14T11:36:53.087Z,61.30
2018-03-14T11:39:21.332Z,61.20
2018-03-14T11:41:49.540Z,62.60
2018-03-14T11:44:17.759Z,62.80
2018-03-14T11:46:46.033Z,61.80
2018-03-14T11:49:14.260Z,64.50
2018-03-14T11:51:42.500Z,63.60
2018-03-14T11:54:10.728Z,62.20
2018-03-14T11:56:39.735Z,61.40
2018-03-14T11:59:07.965Z,61.40
2018-03-14T12:01:36.196Z,64.40
2018-03-14T12:04:04.421Z,63.10
2018-03-14T12:06:32.651Z,63.60
2018-03-14T12:09:00.884Z,62.10
2018-03-14T12:11:29.886Z,61.20
2018-03-14T12:13:58.869Z,64.40
2018-03-14T12:16:27.877Z,63.00
2018-03-14T12:18:56.103Z,62.90
2018-03-14T12:21:24.329Z,62.10
2018-03-14T12:23:52.556Z,61.90
2018-03-14T12:26:20.791Z,60.90
2018-03-14T12:28:49.002Z,59.80
2018-03-14T12:31:17.228Z,62.60
2018-03-14T12:33:45.447Z,61.20
2018-03-14T12:36:13.732Z,59.90
2018-03-14T12:38:41.950Z,59.50
2018-03-14T12:41:10.190Z,60.60
2018-03-14T12:43:39.188Z,62.30
2018-03-14T12:46:08.193Z,63.00
2018-03-14T12:48:36.408Z,63.00
2018-03-14T12:51:04.644Z,60.00
2018-03-14T12:53:32.874Z,59.50
2018-03-14T12:56:01.121Z,59.70
2018-03-14T12:58:29.341Z,59.90
2018-03-14T13:00:58.329Z,59.20
2018-03-14T13:03:27.334Z,60.10
2018-03-14T13:05:56.325Z,58.10
2018-03-14T13:08:25.330Z,55.60
2018-03-14T13:10:53.549Z,55.60
2018-03-14T13:13:21.782Z,56.30
2018-03-14T13:15:50.007Z,57.90
2018-03-14T13:18:18.236Z,56.70
2018-03-14T13:20:46.463Z,55.70
2018-03-14T13:23:14.692Z,56.50
2018-03-14T13:25:42.922Z,55.50
2018-03-14T13:28:11.973Z,56.80
2018-03-14T13:30:40.220Z,56.80
2018-03-14T13:33:08.501Z,57.70
2018-03-14T13:35:36.793Z,57.90
2018-03-14T13:38:05.019Z,56.30
2018-03-14T13:40:34.010Z,56.90
2018-03-14T13:43:03.012Z,58.10
2018-03-14T13:45:31.234Z,58.10
2018-03-14T13:47:59.476Z,58.70
2018-03-14T13:50:28.013Z,58.80
2018-03-14T13:52:56.244Z,58.40
2018-03-14T13:55:24.464Z,57.50
2018-03-14T13:57:53.469Z,57.80
2018-03-14T14:00:22.452Z,56.70
2018-03-14T14:02:51.453Z,58.00
2018-03-14T14:05:20.441Z,58.40
2018-03-14T14:07:49.453Z,60.10
2018-03-14T14:10:17.705Z,60.00
2018-03-14T14:12:46.692Z,57.10
2018-03-14T14:15:15.700Z,55.20
2018-03-14T14:17:43.916Z,55.30
2018-03-14T14:20:12.154Z,55.30
2018-03-14T14:22:40.378Z,54.70
2018-03-14T14:25:08.608Z,55.90
2018-03-14T14:27:36.864Z,57.10
2018-03-14T14:30:05.072Z,54.50
2018-03-14T14:32:33.284Z,55.50
2018-03-14T14:35:01.534Z,56.60
2018-03-14T14:37:29.757Z,56.60
2018-03-14T14:39:58.756Z,57.40
2018-03-14T14:42:26.982Z,57.40
2018-03-14T14:44:55.221Z,58.10
2018-03-14T14:47:23.441Z,58.30
2018-03-14T14:49:51.681Z,57.30
2018-03-14T14:52:19.907Z,57.30
2018-03-14T14:54:48.913Z,59.00
2018-03-14T14:57:17.134Z,59.00
2018-03-14T14:59:45.371Z,56.60
2018-03-14T15:02:13.593Z,56.30
2018-03-14T15:04:41.833Z,56.90
2018-03-14T15:07:10.060Z,56.20
2018-03-14T15:09:39.065Z,59.70
2018-03-14T15:12:07.288Z,59.70
2018-03-14T15:14:35.541Z,58.10
2018-03-14T15:17:03.773Z,57.60
2018-03-14T15:19:32.784Z,58.60
2018-03-14T15:22:01.021Z,58.60
2018-03-14T15:24:29.253Z,59.80
2018-03-14T15:26:57.500Z,59.30
2018-03-14T15:29:25.728Z,60.00
2018-03-14T15:31:53.974Z,59.20
2018-03-14T15:34:22.209Z,57.90
2018-03-14T15:36:51.228Z,59.50
2018-03-14T15:39:19.464Z,59.50
2018-03-14T15:41:48.474Z,57.60
2018-03-14T15:44:16.712Z,57.60
2018-03-14T15:46:44.957Z,58.40
2018-03-14T15:49:13.220Z,58.80
2018-03-14T15:51:41.457Z,60.80
2018-03-14T15:54:10.460Z,59.80
2018-03-14T15:56:39.475Z,61.20
2018-03-14T15:59:07.709Z,61.20
2018-03-14T16:01:35.953Z,58.30
2018-03-14T16:04:04.184Z,60.70
2018-03-14T16:06:32.437Z,60.70
2018-03-14T16:09:01.508Z,59.60
2018-03-14T16:11:29.725Z,59.50
2018-03-14T16:13:58.281Z,59.10
2018-03-14T16:16:27.292Z,61.90
2018-03-14T16:18:55.576Z,61.50
2018-03-14T16:21:23.856Z,60.30
2018-03-14T16:23:52.828Z,60.10
2018-03-14T16:26:21.076Z,60.10
2018-03-14T16:28:49.321Z,60.70
2018-03-14T16:31:17.578Z,61.80
2018-03-14T16:33:45.808Z,61.80
2018-03-14T16:36:14.805Z,61.10
2018-03-14T16:38:43.812Z,60.60
2018-03-14T16:41:12.032Z,60.70
2018-03-14T16:43:40.274Z,62.60
2018-03-14T16:46:08.516Z,62.20
2018-03-14T16:48:37.517Z,62.60
2018-03-14T16:51:05.745Z,62.40
2018-03-14T16:53:33.992Z,61.80
2018-03-14T16:56:02.216Z,62.50
2018-03-14T16:58:30.460Z,61.50
2018-03-14T17:00:59.481Z,62.70
2018-03-14T17:03:27.784Z,61.80
2018-03-14T17:05:56.390Z,63.30
2018-03-14T17:08:24.781Z,62.90
2018-03-14T17:10:53.008Z,64.10
2018-03-14T17:13:22.640Z,64.10
2018-03-14T17:15:51.634Z,64.10
2018-03-14T17:18:19.969Z,64.40
2018-03-14T17:20:49.298Z,64.30
2018-03-14T17:23:18.329Z,64.30
2018-03-14T17:25:47.310Z,64.50
2018-03-14T17:28:16.241Z,65.60
2018-03-14T17:30:45.018Z,65.40
2018-03-14T17:33:13.818Z,65.90
2018-03-14T17:35:42.241Z,65.50
2018-03-14T17:38:10.563Z,64.80
2018-03-14T17:40:39.543Z,65.70
2018-03-14T17:43:07.800Z,65.70
2018-03-14T17:45:36.030Z,66.50
2018-03-14T17:48:04.293Z,66.80
2018-03-14T17:50:33.304Z,66.60
2018-03-14T17:53:01.551Z,66.40
2018-03-14T17:55:30.850Z,69.90
2018-03-14T17:57:59.845Z,71.30
2018-03-14T18:00:29.276Z,70.90
2018-03-14T18:02:57.550Z,70.90
2018-03-14T18:05:25.796Z,69.50
2018-03-14T18:07:54.798Z,71.00
2018-03-14T18:10:23.048Z,71.00
2018-03-14T18:12:52.337Z,71.40
2018-03-14T18:15:20.581Z,71.10
2018-03-14T18:17:48.875Z,69.00
2018-03-14T18:20:20.586Z,68.60
2018-03-14T18:22:49.960Z,67.40
2018-03-14T18:25:18.965Z,68.50
2018-03-14T18:27:47.254Z,67.90
2018-03-14T18:30:16.245Z,69.20
2018-03-14T18:32:44.481Z,69.10
2018-03-14T18:35:12.728Z,67.90
2018-03-14T18:37:40.961Z,68.10
2018-03-14T18:40:09.208Z,69.60
2018-03-14T18:42:38.897Z,67.90
2018-03-14T18:45:07.597Z,67.80
2018-03-14T18:47:35.829Z,69.50
2018-03-14T18:50:04.084Z,69.60
2018-03-14T18:52:32.296Z,69.00
2018-03-14T18:55:00.537Z,69.00
2018-03-14T18:57:28.768Z,69.50
2018-03-14T18:59:57.776Z,69.40
2018-03-14T19:02:26.437Z,69.40
2018-03-14T19:04:55.361Z,68.90
2018-03-14T19:07:24.311Z,69.30
2018-03-14T19:09:53.313Z,69.40
2018-03-14T19:12:22.220Z,69.60
2018-03-14T19:14:51.270Z,70.90
2018-03-14T19:17:20.254Z,71.30
2018-03-14T19:19:49.075Z,70.70
2018-03-14T19:22:18.029Z,72.70
2018-03-14T19:24:46.397Z,72.60
2018-03-14T19:27:15.271Z,72.90
2018-03-14T19:29:50.317Z,72.80
2018-03-14T19:32:19.283Z,73.80
2018-03-14T19:34:48.848Z,74.80
2018-03-14T19:37:17.665Z,74.80
2018-03-14T19:39:46.456Z,74.10
2018-03-14T19:42:14.816Z,74.40
2018-03-14T19:44:43.812Z,74.00
2018-03-14T19:47:12.816Z,72.70
2018-03-14T19:49:41.045Z,72.70
2018-03-14T19:52:09.284Z,73.10
2018-03-14T19:54:37.528Z,73.10
2018-03-14T19:57:06.540Z,72.70
2018-03-14T19:59:34.780Z,72.70
2018-03-14T20:02:03.788Z,73.80
2018-03-14T20:04:32.795Z,72.20
2018-03-14T20:07:01.044Z,72.10
2018-03-14T20:09:30.032Z,72.00
2018-03-14T20:11:59.036Z,70.90
2018-03-14T20:14:28.045Z,71.80
2018-03-14T20:16:56.285Z,71.80
2018-03-14T20:19:25.320Z,72.60
2018-03-14T20:21:53.546Z,72.60
2018-03-14T20:24:21.769Z,72.80
2018-03-14T20:26:50.030Z,72.70
2018-03-14T20:29:18.275Z,72.70
2018-03-14T20:31:47.265Z,72.80
2018-03-14T20:34:16.293Z,71.20
2018-03-14T20:36:44.533Z,71.20
2018-03-14T20:39:13.613Z,72.70
2018-03-14T20:41:41.845Z,72.70
2018-03-14T20:44:10.096Z,72.50
2018-03-14T20:46:38.332Z,71.90
2018-03-14T20:49:06.576Z,72.70
2018-03-14T20:51:34.815Z,72.10
2018-03-14T20:54:03.081Z,72.00
2018-03-14T20:56:32.077Z,72.70
2018-03-14T20:59:00.341Z,72.70
2018-03-14T21:01:29.341Z,72.30
2018-03-14T21:03:58.349Z,72.40
2018-03-14T21:06:26.585Z,72.20
2018-03-14T21:08:55.640Z,71.00
2018-03-14T21:11:24.632Z,71.30
2018-03-14T21:13:52.881Z,71.30
2018-03-14T21:16:23.624Z,71.20
2018-03-14T21:18:51.874Z,70.70
2018-03-14T21:21:20.105Z,70.90
2018-03-14T21:23:48.352Z,71.30
2018-03-14T21:26:16.588Z,71.30
2018-03-14T21:28:45.616Z,70.70
2018-03-14T21:31:13.846Z,70.70
2018-03-14T21:33:42.856Z,71.60
2018-03-14T21:36:11.097Z,71.60
2018-03-14T21:38:39.369Z,71.50
2018-03-14T21:41:07.625Z,72.00
2018-03-14T21:43:35.828Z,72.20
2018-03-14T21:46:04.852Z,72.70
2018-03-14T21:48:33.080Z,72.60
2018-03-14T21:51:01.329Z,72.90
2018-03-14T21:53:29.562Z,72.40
2018-03-14T21:55:57.814Z,72.50
2018-03-14T21:58:26.820Z,73.60
2018-03-14T22:00:55.833Z,74.00
2018-03-14T22:03:24.070Z,74.00
2018-03-14T22:05:53.080Z,74.10
2018-03-14T22:08:21.336Z,74.00
2018-03-14T22:10:49.560Z,73.90
2018-03-14T22:13:17.814Z,73.90
2018-03-14T22:15:46.821Z,73.60
2018-03-14T22:18:15.048Z,73.60
2018-03-14T22:20:43.292Z,73.60
2018-03-14T22:23:11.525Z,73.80
2018-03-14T22:25:39.772Z,73.60
2018-03-14T22:28:08.768Z,73.60
2018-03-14T22:30:37.829Z,74.30
2018-03-14T22:33:06.029Z,74.30
2018-03-14T22:35:35.044Z,73.60
2018-03-14T22:38:03.284Z,73.50
2018-03-14T22:40:31.527Z,73.50
2018-03-14T22:42:59.764Z,73.60
2018-03-14T22:45:28.012Z,73.50
2018-03-14T22:47:57.004Z,72.30
2018-03-14T22:50:25.577Z,72.30
2018-03-14T22:52:54.544Z,72.70
2018-03-14T22:55:22.785Z,72.70
2018-03-14T22:57:51.056Z,73.00
2018-03-14T23:00:19.291Z,72.30
2018-03-14T23:02:47.529Z,72.20
2018-03-14T23:05:15.769Z,72.60
2018-03-14T23:07:44.772Z,71.80
2018-03-14T23:10:13.011Z,71.80
2018-03-14T23:12:42.020Z,72.30
2018-03-14T23:15:10.262Z,72.10
2018-03-14T23:17:38.516Z,71.80
2018-03-14T23:20:06.749Z,71.90
2018-03-14T23:22:34.993Z,71.80
2018-03-14T23:25:03.220Z,71.40
2018-03-14T23:27:31.467Z,72.50
2018-03-14T23:29:59.700Z,71.50
2018-03-14T23:32:27.937Z,71.30
2018-03-14T23:34:56.370Z,72.10
2018-03-14T23:37:24.612Z,71.90
2018-03-14T23:39:52.837Z,72.50
2018-03-14T23:42:21.856Z,73.50
2018-03-14T23:44:50.088Z,73.40
2018-03-14T23:47:19.100Z,74.90
2018-03-14T23:49:47.325Z,74.10
2018-03-14T23:52:15.679Z,74.40
2018-03-14T23:54:43.900Z,74.80
2018-03-14T23:57:12.925Z,74.90
2018-03-14T23:59:41.152Z,74.90
